Terminal Aerodrome Forecast
Issued by NWS

Home | Current Version | Previous Version | Text Only | Print | Product List | Glossary On
Versions: 1 2 3 4 5 6 7 8 9 10 11 12 13 14 15 16 17 18 19 20 21 22
000
FTUS43 KGRR 010500
TAFMKG
TAF
KMKG 010540Z 0106/0206 15007KT P6SM SKC
     FM011000 17007KT 6SM HZ FEW015
     FM011500 19014G24KT 4SM -SHRA BR VCTS SCT045CB BKN100
     FM011900 21014G24KT P6SM SCT050 BKN100
     FM012300 23010KT P6SM VCSH SCT050 BKN100=

USA.gov is the U.S. government's official web portal to all federal, state and local government web resources and services.